Saddle Brook, New Jersey
Current Conditions -  °F | °C
As of 12:04 PM on Tuesday 27 Jan 2015 (Local Time) from KTEB Reporting Station
Light Snow Light Snow  
Wind Chill: 11°   Ceiling: 3900
Heat Index: 25°   Visibility: 4mi
Dew Point: 16°   Wind: 17mph
Humidity: 69%   Direction: 330°NNW
Pressure: 29.68"   Gusts: 24mph
Location:  40.9°N, 74.08°W
Report Text: KTEB 271704Z 33015G21KT 4SM -SN BR FEW022 BKN039 OVC049 M04/M09 A2968 RMK AO2 P0000
Loading
Personal Weather Stations






























Interactive Weather Map New forecast layout! Learn more

10-Day Weather Forecast

Advertisements
Track Severe Weather on mobile